Terminal Aerodrome Forecast
Issued by NWS

Home | Current Version | Previous Version | Text Only | Print | Product List | Glossary On
Versions: 1 2 3 4 5 6 7 8 9 10 11 12 13 14 15 16 17 18 19 20 21
000
FTAK31 PANC 180531
TAFADQ
TAF
PADQ 180531Z 1806/1906 VRB04KT P6SM VCSH SCT020 OVC035
      TEMPO 1806/1808 BKN020
     FM180900 VRB05KT P6SM SCT035 BKN060
     FM182100 09013KT P6SM VCSH OVC025=

USA.gov is the U.S. government's official web portal to all federal, state and local government web resources and services.